createdAt,value
2019-01-25T00:00:42.704Z,44.07
2019-01-25T00:03:11.422Z,44.57
2019-01-25T00:05:40.147Z,47.27
2019-01-25T00:08:08.963Z,45.57
2019-01-25T00:10:37.722Z,46.30
2019-01-25T00:13:06.452Z,48.93
2019-01-25T00:15:35.215Z,46.53
2019-01-25T00:18:05.107Z,45.93
2019-01-25T00:20:33.851Z,47.10
2019-01-25T00:23:02.594Z,47.57
2019-01-25T00:25:31.329Z,49.47
2019-01-25T00:28:00.019Z,45.63
2019-01-25T00:30:28.755Z,47.57
2019-01-25T00:32:57.505Z,46.37
2019-01-25T00:35:26.261Z,47.17
2019-01-25T00:37:54.966Z,48.13
2019-01-25T00:40:23.936Z,44.43
2019-01-25T00:42:52.650Z,44.13
2019-01-25T00:45:21.351Z,46.57
2019-01-25T00:47:50.071Z,45.53
2019-01-25T00:50:19.242Z,47.00
2019-01-25T00:52:48.095Z,47.07
2019-01-25T00:55:16.895Z,47.00
2019-01-25T00:57:45.756Z,47.10
2019-01-25T01:00:18.359Z,46.47
2019-01-25T01:02:47.114Z,44.43
2019-01-25T01:05:16.086Z,47.40
2019-01-25T01:07:45.323Z,45.03
2019-01-25T01:10:14.453Z,44.30
2019-01-25T01:12:43.223Z,46.90
2019-01-25T01:15:12.687Z,43.87
2019-01-25T01:17:41.404Z,46.07
2019-01-25T01:20:11.367Z,43.93
2019-01-25T01:22:40.114Z,43.67
2019-01-25T01:25:09.323Z,44.03
2019-01-25T01:27:38.153Z,46.43
2019-01-25T01:30:07.627Z,43.77
2019-01-25T01:32:36.551Z,43.40
2019-01-25T01:35:06.069Z,45.13
2019-01-25T01:37:34.775Z,44.47
2019-01-25T01:40:04.788Z,45.10
2019-01-25T01:42:33.496Z,44.17
2019-01-25T01:45:02.188Z,44.30
2019-01-25T01:47:30.906Z,44.73
2019-01-25T01:49:59.595Z,45.50
2019-01-25T01:52:28.289Z,45.17
2019-01-25T01:54:57.002Z,43.63
2019-01-25T01:57:25.698Z,46.40
2019-01-25T01:59:54.454Z,45.53
2019-01-25T02:02:23.169Z,46.63
2019-01-25T02:04:51.867Z,46.57
2019-01-25T02:07:20.619Z,46.83
2019-01-25T02:09:49.320Z,44.10
2019-01-25T02:12:18.170Z,44.70
2019-01-25T02:14:46.886Z,50.83
2019-01-25T02:17:15.615Z,44.97
2019-01-25T02:19:44.377Z,43.73
2019-01-25T02:22:13.118Z,43.67
2019-01-25T02:24:41.821Z,43.93
2019-01-25T02:27:10.593Z,44.70
2019-01-25T02:29:39.313Z,44.50
2019-01-25T02:32:08.091Z,45.30
2019-01-25T02:34:38.419Z,44.77
2019-01-25T02:37:07.147Z,44.60
2019-01-25T02:39:35.883Z,44.40
2019-01-25T02:42:04.711Z,44.97
2019-01-25T02:44:33.691Z,42.57
2019-01-25T02:47:02.379Z,46.90
2019-01-25T02:49:31.084Z,44.37
2019-01-25T02:51:59.834Z,47.77
2019-01-25T02:54:28.543Z,44.63
2019-01-25T02:56:57.250Z,44.07
2019-01-25T02:59:25.948Z,47.07
2019-01-25T03:01:54.627Z,46.83
2019-01-25T03:04:23.349Z,42.67
2019-01-25T03:06:52.043Z,45.80
2019-01-25T03:09:20.796Z,45.53
2019-01-25T03:11:49.498Z,44.50
2019-01-25T03:14:18.190Z,44.73
2019-01-25T03:16:46.940Z,47.17
2019-01-25T03:19:15.630Z,46.17
2019-01-25T03:21:44.336Z,42.53
2019-01-25T03:24:13.058Z,43.30
2019-01-25T03:26:41.844Z,44.87
2019-01-25T03:29:10.564Z,45.17
2019-01-25T03:31:39.621Z,43.27
2019-01-25T03:34:08.409Z,46.40
2019-01-25T03:36:37.113Z,46.93
2019-01-25T03:39:07.665Z,43.93
2019-01-25T03:41:36.365Z,43.93
2019-01-25T03:44:05.518Z,45.70
2019-01-25T03:46:34.225Z,45.83
2019-01-25T03:49:02.923Z,46.07
2019-01-25T03:51:31.651Z,47.23
2019-01-25T03:54:00.348Z,48.33
2019-01-25T03:56:29.054Z,47.00
2019-01-25T03:58:57.781Z,47.63
2019-01-25T04:01:26.499Z,45.30
2019-01-25T04:03:55.302Z,45.90
2019-01-25T04:06:24.013Z,42.67
2019-01-25T04:08:54.079Z,45.73
2019-01-25T04:11:22.758Z,45.43
2019-01-25T04:13:51.495Z,47.40
2019-01-25T04:16:20.179Z,45.30
2019-01-25T04:18:48.919Z,44.47
2019-01-25T04:21:17.663Z,44.77
2019-01-25T04:23:46.785Z,45.37
2019-01-25T04:26:15.505Z,45.40
2019-01-25T04:28:44.290Z,44.73
2019-01-25T04:31:12.980Z,45.83
2019-01-25T04:33:41.668Z,43.83
2019-01-25T04:36:13.170Z,44.03
2019-01-25T04:38:41.924Z,44.67
2019-01-25T04:41:11.660Z,51.63
2019-01-25T04:43:40.734Z,45.97
2019-01-25T04:46:09.436Z,45.60
2019-01-25T04:48:38.370Z,44.07
2019-01-25T04:51:07.889Z,46.57
2019-01-25T04:53:37.130Z,46.30
2019-01-25T04:56:05.969Z,46.60
2019-01-25T04:58:34.667Z,45.10
2019-01-25T05:01:07.055Z,48.07
2019-01-25T05:03:35.886Z,48.50
2019-01-25T05:06:05.043Z,47.90
2019-01-25T05:08:33.778Z,45.67
2019-01-25T05:11:02.528Z,45.37
2019-01-25T05:13:31.778Z,46.30
2019-01-25T05:16:00.579Z,47.07
2019-01-25T05:18:29.399Z,46.77
2019-01-25T05:20:58.115Z,45.33
2019-01-25T05:23:26.846Z,57.67
2019-01-25T05:25:55.558Z,46.53
2019-01-25T05:28:24.343Z,45.00
2019-01-25T05:30:54.421Z,45.73
2019-01-25T05:33:23.160Z,44.27
2019-01-25T05:35:51.838Z,43.67
2019-01-25T05:38:20.571Z,44.60
2019-01-25T05:40:49.346Z,42.33
2019-01-25T05:43:18.051Z,41.90
2019-01-25T05:45:46.818Z,40.37
2019-01-25T05:48:15.496Z,42.17
2019-01-25T05:50:44.253Z,41.77
2019-01-25T05:53:12.978Z,41.03
2019-01-25T05:55:41.732Z,41.73
2019-01-25T05:58:10.777Z,41.10
2019-01-25T06:00:41.284Z,42.40
2019-01-25T06:03:11.119Z,42.60
2019-01-25T06:05:39.805Z,43.03
2019-01-25T06:08:31.207Z,41.90
2019-01-25T06:11:04.657Z,50.93
2019-01-25T06:13:33.405Z,42.00
2019-01-25T06:16:02.321Z,41.97
2019-01-25T06:18:31.095Z,43.10
2019-01-25T06:20:59.831Z,39.30
2019-01-25T06:23:28.594Z,42.17
2019-01-25T06:25:57.971Z,43.20
2019-01-25T06:28:26.759Z,40.37
2019-01-25T06:30:55.451Z,46.85
2019-01-25T06:33:24.220Z,42.30
2019-01-25T06:35:53.064Z,45.33
2019-01-25T06:38:21.792Z,42.30
2019-01-25T06:40:50.517Z,43.43
2019-01-25T06:43:19.528Z,42.40
2019-01-25T06:45:49.818Z,43.40
2019-01-25T06:48:18.734Z,41.57
2019-01-25T06:50:47.526Z,41.63
2019-01-25T06:53:16.350Z,45.03
2019-01-25T06:55:45.064Z,44.83
2019-01-25T07:01:30.712Z,41.97
2019-01-25T07:03:59.614Z,42.93
2019-01-25T07:06:28.346Z,50.30
2019-01-25T07:08:57.083Z,52.50
2019-01-25T07:11:25.787Z,51.13
2019-01-25T07:13:54.486Z,45.03
2019-01-25T07:16:23.217Z,42.30
2019-01-25T07:18:51.930Z,40.03
2019-01-25T07:21:20.618Z,41.73
2019-01-25T07:23:49.398Z,42.27
2019-01-25T07:26:18.078Z,43.87
2019-01-25T07:28:53.518Z,40.37
2019-01-25T07:31:22.271Z,41.10
2019-01-25T07:33:51.022Z,40.13
2019-01-25T07:36:19.796Z,39.90
2019-01-25T07:38:48.482Z,42.03
2019-01-25T07:41:17.215Z,40.07
2019-01-25T07:43:45.926Z,39.50
2019-01-25T07:46:14.645Z,38.60
2019-01-25T07:48:43.459Z,40.53
2019-01-25T07:51:12.324Z,39.80
2019-01-25T07:53:41.176Z,41.03
2019-01-25T07:56:10.211Z,41.13
2019-01-25T07:58:38.987Z,42.97
2019-01-25T08:01:07.695Z,41.53
2019-01-25T08:03:36.407Z,40.43
2019-01-25T08:06:05.114Z,40.83
2019-01-25T08:08:33.968Z,40.10
2019-01-25T08:11:02.729Z,42.27
2019-01-25T08:13:31.534Z,39.00
2019-01-25T08:16:00.350Z,38.07
2019-01-25T08:18:29.165Z,39.27
2019-01-25T08:20:57.981Z,40.93
2019-01-25T08:23:26.766Z,42.17
2019-01-25T08:25:55.521Z,41.10
2019-01-25T08:28:24.214Z,38.80
2019-01-25T08:30:52.932Z,40.77
2019-01-25T08:33:21.886Z,40.10
2019-01-25T08:35:50.855Z,38.03
2019-01-25T08:38:19.603Z,38.40
2019-01-25T08:40:48.379Z,40.33
2019-01-25T08:43:17.101Z,39.17
2019-01-25T08:45:45.958Z,39.03
2019-01-25T08:48:14.678Z,39.20
2019-01-25T08:50:43.895Z,39.53
2019-01-25T08:53:12.898Z,38.87
2019-01-25T08:55:41.767Z,39.23
2019-01-25T08:58:10.555Z,38.20
2019-01-25T09:00:39.276Z,41.37
2019-01-25T09:03:08.257Z,37.87
2019-01-25T09:05:37.015Z,37.87
2019-01-25T09:08:05.755Z,38.97
2019-01-25T09:10:34.459Z,39.67
2019-01-25T09:13:03.216Z,36.57
2019-01-25T09:15:32.053Z,38.40
2019-01-25T09:18:00.768Z,37.87
2019-01-25T09:20:29.546Z,38.80
2019-01-25T09:22:58.258Z,36.97
2019-01-25T09:25:27.015Z,35.10
2019-01-25T09:27:55.693Z,36.43
2019-01-25T09:30:24.455Z,37.70
2019-01-25T09:32:53.182Z,35.00
2019-01-25T09:35:21.892Z,36.70
2019-01-25T09:37:51.157Z,35.57
2019-01-25T09:40:22.119Z,34.50
2019-01-25T09:42:51.241Z,35.03
2019-01-25T09:45:20.079Z,35.67
2019-01-25T09:47:48.820Z,36.47
2019-01-25T09:50:17.860Z,35.83
2019-01-25T09:52:46.608Z,34.40
2019-01-25T09:55:16.474Z,37.17
2019-01-25T09:57:45.210Z,36.77
2019-01-25T10:00:16.526Z,37.03
2019-01-25T10:02:45.259Z,36.80
2019-01-25T10:05:13.986Z,34.93
2019-01-25T10:07:42.725Z,36.40
2019-01-25T10:10:11.546Z,36.23
2019-01-25T10:12:43.382Z,36.93
2019-01-25T10:15:12.047Z,36.30
2019-01-25T10:17:40.768Z,34.57
2019-01-25T10:20:09.982Z,36.63
2019-01-25T10:22:38.711Z,35.70
2019-01-25T10:25:07.936Z,35.87
2019-01-25T10:27:36.708Z,36.67
2019-01-25T10:30:07.115Z,38.50
2019-01-25T10:32:35.835Z,36.77
2019-01-25T10:35:04.961Z,36.43
2019-01-25T10:37:35.095Z,37.60
2019-01-25T10:40:04.500Z,35.43
2019-01-25T10:42:33.235Z,36.77
2019-01-25T10:45:04.465Z,39.53
2019-01-25T10:47:32.497Z,43.58
2019-01-25T10:50:01.271Z,38.57
2019-01-25T10:52:29.975Z,37.33
2019-01-25T10:54:58.757Z,36.37
2019-01-25T10:57:27.531Z,36.03
2019-01-25T10:59:56.279Z,37.10
2019-01-25T11:02:24.997Z,37.33
2019-01-25T11:04:53.726Z,36.63
2019-01-25T11:07:22.499Z,36.97
2019-01-25T11:09:51.287Z,37.67
2019-01-25T11:12:20.099Z,33.77
2019-01-25T11:14:48.921Z,35.87
2019-01-25T11:17:17.634Z,34.03
2019-01-25T11:19:46.409Z,34.57
2019-01-25T11:22:15.246Z,32.23
2019-01-25T11:24:43.955Z,33.83
2019-01-25T11:27:12.683Z,38.33
2019-01-25T11:29:41.454Z,33.20
2019-01-25T11:32:10.220Z,33.83
2019-01-25T11:34:38.931Z,33.10
2019-01-25T11:37:07.743Z,32.37
2019-01-25T11:39:36.506Z,32.37
2019-01-25T11:42:05.218Z,30.97
2019-01-25T11:44:34.019Z,29.63
2019-01-25T11:47:02.781Z,31.43
2019-01-25T11:49:31.510Z,30.37
2019-01-25T11:52:25.002Z,29.63
2019-01-25T11:54:51.294Z,29.43
2019-01-25T11:57:20.851Z,30.47
2019-01-25T11:59:49.811Z,28.43
2019-01-25T12:02:21.001Z,29.30
2019-01-25T12:04:49.070Z,28.63
2019-01-25T12:07:17.790Z,27.50
2019-01-25T12:09:46.521Z,27.53
2019-01-25T12:12:15.353Z,27.70
2019-01-25T12:14:44.067Z,27.00
2019-01-25T12:17:12.780Z,25.67
2019-01-25T12:19:41.536Z,32.07
2019-01-25T12:22:10.249Z,35.00
2019-01-25T12:24:38.988Z,32.20
2019-01-25T12:27:07.727Z,30.27
2019-01-25T12:29:36.490Z,22.27
2019-01-25T12:32:05.245Z,20.13
2019-01-25T12:34:34.067Z,15.83
2019-01-25T12:37:04.679Z,11.87
2019-01-25T12:39:33.258Z,11.60
2019-01-25T12:42:02.058Z,10.70
2019-01-25T12:44:30.795Z,11.00
2019-01-25T12:46:59.494Z,10.87
2019-01-25T12:49:28.241Z,11.83
2019-01-25T12:52:01.590Z,11.50
2019-01-25T12:54:30.306Z,9.37
2019-01-25T12:56:59.051Z,9.90
2019-01-25T12:59:27.759Z,9.73
2019-01-25T13:01:56.452Z,8.67
2019-01-25T13:04:25.618Z,9.03
2019-01-25T13:06:54.389Z,8.03
2019-01-25T13:09:23.118Z,8.07
2019-01-25T13:11:51.857Z,8.70
2019-01-25T13:14:20.684Z,8.10
2019-01-25T13:16:50.783Z,7.53
2019-01-25T13:19:19.668Z,8.73
2019-01-25T13:21:48.462Z,7.23
2019-01-25T13:24:17.209Z,8.30
2019-01-25T13:26:45.942Z,7.60
2019-01-25T13:29:14.842Z,8.33
2019-01-25T13:31:43.664Z,8.23
2019-01-25T13:34:12.454Z,9.40
2019-01-25T13:36:41.248Z,8.43
2019-01-25T13:39:10.303Z,9.73
2019-01-25T13:41:39.036Z,9.23
2019-01-25T13:44:07.775Z,7.53
2019-01-25T13:46:36.609Z,7.43
2019-01-25T13:49:05.430Z,6.67
2019-01-25T13:51:34.143Z,7.20
2019-01-25T13:54:02.871Z,6.80
2019-01-25T13:56:31.587Z,5.43
2019-01-25T13:59:00.547Z,7.37
2019-01-25T14:01:34.616Z,6.03
2019-01-25T14:03:59.723Z,5.57
2019-01-25T14:06:28.493Z,5.13
2019-01-25T14:08:57.259Z,4.80
2019-01-25T14:11:25.987Z,5.07
2019-01-25T14:13:54.753Z,5.20
2019-01-25T14:16:23.524Z,5.67
2019-01-25T14:18:52.351Z,5.10
2019-01-25T14:21:21.082Z,5.63
2019-01-25T14:23:49.876Z,5.10
2019-01-25T14:26:18.647Z,5.53
2019-01-25T14:28:47.492Z,5.78
2019-01-25T14:31:16.304Z,5.67
2019-01-25T14:33:45.028Z,5.43
2019-01-25T14:36:13.822Z,5.73
2019-01-25T14:38:42.590Z,6.27
2019-01-25T14:41:11.403Z,5.97
2019-01-25T14:43:40.093Z,6.10
2019-01-25T14:46:08.816Z,6.23
2019-01-25T14:48:38.319Z,6.87
2019-01-25T14:51:07.226Z,6.97
2019-01-25T14:53:35.995Z,6.80
2019-01-25T14:56:04.730Z,7.03
2019-01-25T14:58:33.499Z,7.70
2019-01-25T15:01:02.215Z,8.63
2019-01-25T15:03:30.967Z,8.37
2019-01-25T15:05:59.647Z,7.60
2019-01-25T15:08:28.481Z,7.60
2019-01-25T15:10:57.193Z,7.47
2019-01-25T15:13:26.001Z,8.10
2019-01-25T15:15:54.804Z,9.67
2019-01-25T15:18:24.523Z,14.37
2019-01-25T15:20:53.312Z,7.30
2019-01-25T15:23:22.127Z,8.20
2019-01-25T15:25:50.958Z,6.90
2019-01-25T15:28:19.693Z,7.67
2019-01-25T15:30:48.436Z,7.63
2019-01-25T15:33:17.218Z,8.10
2019-01-25T15:35:45.970Z,8.00
2019-01-25T15:38:14.707Z,7.80
2019-01-25T15:40:43.785Z,7.80
2019-01-25T15:43:12.625Z,7.53
2019-01-25T15:45:41.507Z,7.80
2019-01-25T15:48:10.244Z,8.00
2019-01-25T15:50:39.050Z,8.30
2019-01-25T15:53:07.780Z,7.53
2019-01-25T15:55:36.822Z,7.93
2019-01-25T15:58:05.543Z,7.70
2019-01-25T16:00:34.434Z,7.60
2019-01-25T16:03:03.195Z,7.97
2019-01-25T16:05:31.913Z,9.10
2019-01-25T16:08:00.721Z,8.93
2019-01-25T16:10:29.584Z,8.50
2019-01-25T16:12:58.419Z,9.20
2019-01-25T16:15:28.339Z,9.00
2019-01-25T16:17:57.080Z,9.90
2019-01-25T16:20:25.831Z,10.07
2019-01-25T16:22:54.735Z,9.77
2019-01-25T16:25:30.555Z,10.53
2019-01-25T16:28:03.437Z,9.43
2019-01-25T16:30:33.416Z,11.23
2019-01-25T16:33:02.289Z,15.37
2019-01-25T16:35:31.078Z,15.30
2019-01-25T16:37:59.903Z,10.60
2019-01-25T16:40:28.857Z,11.83
2019-01-25T16:42:57.595Z,11.80
2019-01-25T16:45:34.037Z,10.93
2019-01-25T16:48:02.820Z,11.17
2019-01-25T16:50:31.549Z,10.93
2019-01-25T16:53:00.343Z,11.90
2019-01-25T16:55:30.184Z,12.70
2019-01-25T16:57:59.669Z,12.60
2019-01-25T17:00:29.683Z,11.83
2019-01-25T17:02:58.506Z,11.87
2019-01-25T17:05:27.239Z,11.30
2019-01-25T17:07:56.019Z,11.60
2019-01-25T17:10:24.763Z,12.47
2019-01-25T17:12:53.499Z,11.47
2019-01-25T17:15:22.474Z,11.47
2019-01-25T17:17:51.261Z,12.40
2019-01-25T17:20:41.216Z,11.83
2019-01-25T17:23:10.070Z,12.30
2019-01-25T17:25:38.927Z,12.43
2019-01-25T17:28:08.490Z,12.75
2019-01-25T17:30:37.800Z,11.83
2019-01-25T17:33:06.568Z,11.87
2019-01-25T17:35:35.419Z,12.17
2019-01-25T17:38:04.855Z,11.77
2019-01-25T17:40:34.958Z,12.27
2019-01-25T17:43:04.010Z,11.73
2019-01-25T17:45:32.829Z,11.00
2019-01-25T17:48:01.628Z,11.47
2019-01-25T17:50:30.433Z,11.70
2019-01-25T17:52:59.189Z,11.07
2019-01-25T17:55:27.930Z,12.17
2019-01-25T17:57:56.709Z,12.03
2019-01-25T18:00:31.522Z,11.20
2019-01-25T18:03:00.332Z,13.03
2019-01-25T18:05:29.121Z,11.87
2019-01-25T18:07:57.866Z,11.53
2019-01-25T18:10:26.615Z,11.27
2019-01-25T18:12:55.337Z,11.83
2019-01-25T18:15:24.080Z,11.60
2019-01-25T18:17:53.056Z,12.40
2019-01-25T18:20:21.822Z,11.67
2019-01-25T18:22:50.610Z,11.90
2019-01-25T18:25:24.305Z,11.97
2019-01-25T18:27:54.937Z,11.40
2019-01-25T18:30:26.798Z,11.30
2019-01-25T18:32:55.547Z,11.63
2019-01-25T18:35:24.352Z,11.57
2019-01-25T18:37:54.735Z,12.03
2019-01-25T18:40:23.611Z,11.13
2019-01-25T18:42:52.340Z,11.63
2019-01-25T18:45:21.113Z,11.47
2019-01-25T18:47:49.910Z,11.67
2019-01-25T18:50:18.711Z,11.43
2019-01-25T18:52:47.601Z,12.17
2019-01-25T18:55:17.412Z,12.63
2019-01-25T18:57:46.198Z,11.50
2019-01-25T19:00:16.722Z,11.37
2019-01-25T19:02:45.985Z,11.87
2019-01-25T19:05:15.157Z,10.40
2019-01-25T19:07:43.930Z,11.70
2019-01-25T19:10:14.390Z,10.83
2019-01-25T19:12:43.174Z,11.00
2019-01-25T19:15:12.888Z,11.47
2019-01-25T19:17:41.639Z,11.70
2019-01-25T19:20:11.236Z,10.43
2019-01-25T19:22:40.065Z,10.70
2019-01-25T19:25:08.911Z,10.60
2019-01-25T19:27:37.669Z,10.80
2019-01-25T19:30:08.599Z,11.10
2019-01-25T19:32:37.410Z,10.17
2019-01-25T19:35:07.004Z,10.83
2019-01-25T19:37:35.778Z,11.50
2019-01-25T19:40:05.556Z,12.13
2019-01-25T19:42:34.340Z,10.03
2019-01-25T19:45:03.096Z,10.70
2019-01-25T19:47:31.877Z,10.80
2019-01-25T19:50:00.589Z,10.77
2019-01-25T19:52:29.362Z,11.00
2019-01-25T19:54:58.146Z,10.93
2019-01-25T19:57:26.986Z,10.67
2019-01-25T19:59:55.768Z,10.57
2019-01-25T20:02:24.566Z,9.93
2019-01-25T20:04:53.393Z,9.93
2019-01-25T20:07:22.261Z,10.23
2019-01-25T20:09:51.067Z,10.27
2019-01-25T20:12:19.851Z,9.80
2019-01-25T20:14:48.650Z,10.03
2019-01-25T20:17:17.529Z,10.03
2019-01-25T20:19:46.361Z,9.77
2019-01-25T20:22:15.227Z,9.77
2019-01-25T20:24:44.097Z,10.00
2019-01-25T20:27:12.802Z,9.80
2019-01-25T20:29:41.618Z,10.75
2019-01-25T20:32:10.363Z,9.07
2019-01-25T20:34:39.150Z,10.27
2019-01-25T20:37:07.997Z,10.07
2019-01-25T20:39:36.805Z,10.27
2019-01-25T20:42:05.647Z,10.83
2019-01-25T20:44:34.679Z,10.80
2019-01-25T20:47:03.469Z,11.20
2019-01-25T20:49:35.660Z,10.83
2019-01-25T20:52:04.512Z,11.20
2019-01-25T20:54:33.252Z,12.00
2019-01-25T20:57:03.926Z,12.17
2019-01-25T20:59:32.690Z,12.47
2019-01-25T21:02:01.455Z,11.77
2019-01-25T21:04:30.308Z,11.67
2019-01-25T21:07:01.670Z,11.83
2019-01-25T21:09:30.404Z,12.23
2019-01-25T21:11:59.186Z,11.67
2019-01-25T21:14:27.894Z,11.83
2019-01-25T21:16:56.674Z,12.53
2019-01-25T21:19:25.534Z,11.00
2019-01-25T21:21:54.364Z,10.70
2019-01-25T21:24:23.122Z,12.27
2019-01-25T21:26:52.089Z,12.00
2019-01-25T21:29:21.108Z,11.27
2019-01-25T21:31:49.886Z,10.70
2019-01-25T21:34:18.727Z,10.93
2019-01-25T21:36:47.459Z,11.90
2019-01-25T21:39:16.263Z,11.73
2019-01-25T21:41:45.036Z,11.33
2019-01-25T21:44:13.811Z,12.43
2019-01-25T21:46:42.544Z,14.53
2019-01-25T21:49:11.612Z,12.53
2019-01-25T21:51:40.402Z,12.27
2019-01-25T21:54:09.196Z,10.73
2019-01-25T21:56:37.993Z,10.80
2019-01-25T21:59:06.794Z,10.83
2019-01-25T22:01:35.545Z,9.80
2019-01-25T22:04:04.622Z,10.63
2019-01-25T22:06:33.423Z,10.50
2019-01-25T22:09:02.182Z,10.00
2019-01-25T22:11:30.964Z,9.87
2019-01-25T22:13:59.790Z,9.40
2019-01-25T22:16:28.533Z,8.67
2019-01-25T22:18:57.342Z,11.23
2019-01-25T22:21:26.089Z,10.77
2019-01-25T22:23:54.872Z,10.30
2019-01-25T22:26:23.937Z,9.90
2019-01-25T22:28:52.752Z,9.30
2019-01-25T22:31:21.511Z,9.40
2019-01-25T22:33:50.304Z,9.87
2019-01-25T22:36:19.551Z,9.00
2019-01-25T22:38:48.267Z,8.93
2019-01-25T22:41:17.008Z,7.50
2019-01-25T22:43:45.933Z,9.00
2019-01-25T22:46:14.741Z,7.07
2019-01-25T22:48:43.478Z,6.30
2019-01-25T22:51:12.243Z,4.80
2019-01-25T22:53:40.966Z,5.27
2019-01-25T22:56:09.778Z,5.17
2019-01-25T22:58:38.544Z,3.80
2019-01-25T23:01:19.283Z,4.07
2019-01-25T23:03:53.754Z,3.53
2019-01-25T23:06:33.309Z,4.83
2019-01-25T23:09:05.659Z,3.60
2019-01-25T23:11:34.385Z,3.40
2019-01-25T23:14:03.171Z,2.30
2019-01-25T23:16:31.994Z,2.30
2019-01-25T23:19:01.039Z,2.30
2019-01-25T23:21:29.790Z,1.77
2019-01-25T23:23:58.530Z,2.30
2019-01-25T23:26:27.349Z,1.80
2019-01-25T23:28:56.053Z,2.10
2019-01-25T23:31:24.902Z,1.93
2019-01-25T23:33:53.714Z,1.97
2019-01-25T23:36:23.098Z,2.00
2019-01-25T23:38:52.365Z,2.03
2019-01-25T23:41:22.111Z,1.70
2019-01-25T23:43:51.409Z,1.60
2019-01-25T23:46:20.687Z,1.80
2019-01-25T23:48:49.979Z,2.10
2019-01-25T23:51:23.011Z,1.80
2019-01-25T23:53:50.251Z,1.70
2019-01-25T23:56:19.507Z,1.60
2019-01-25T23:58:48.743Z,1.83
